ACT        NSW        VIC        QLD        SA        WA        TAS        NT        INFO        CALC            by VK5ZD

Past Date/Time: (dd/mm/yyyy hh:mm or blank for current data)    

  Atmospheric Gas Attenuation - ITU Rec 676-11   --------------- dB/100km ---------------
SA Stations Date Time Temp RH % AH g/m3 Dew Point Wind Direction Speed kph Gust kph Barometer mB Rainfall Since 9am 24GHz 47GHz 76GHz 122GHz 134GHz 241GHz
Adelaide (West Terrace / Ngayirdapira) 08/05 11:00 15 92 11.8 13.7 13 20 1031.4 0.4 26.3 31.7 53.6 140.9 142.9 493.9
Adelaide Airport 08/05 11:00 15 94 12.05 14 20 24 1031.5 0.4 26.9 32.1 54.7 143.9 146.6 506.8
Clare 08/05 11:00 12.1 80 8.58 8.8 13 24 1031.6 0 19.6 27.1 41.4 108.5 101.8 350.1
Edinburgh 08/05 11:00 15.1 84 10.84 12.4 19 24 1031.7 0 24.3 30.0 49.3 129.5 128.9 445.0
Kadina 08/05 11:00 16.8 63 9.01 9.7 24 30 1032.3 0 20.3 26.4 40.8 106.8 101.5 349.5
Kuitpo 08/05 11:00 12.6 99 10.95 12.4 11 19 1029.8 0 24.7 31.0 51.3 134.8 134.6 464.7
Mount Crawford 08/05 11:00 11.8 84 8.84 9.2 20 35 1030.2 0 20.2 27.5 42.6 111.7 105.7 363.6
Mount Lofty 08/05 11:00 10.4 99 9.54 10.2 9 20 1013.1 0.2 21.8 28.5 45.6 119.8 116.1 399.8
Noarlunga 08/05 11:00 15.7 83 11.1 12.8 11 24 1013.1 0 24.8 29.5 49.1 129.3 129.6 448.0
Nuriootpa 08/05 11:00 13.6 81 9.53 10.4 19 30 1031.4 0 21.6 28.2 44.6 116.9 112.8 388.7
Parafield 08/05 11:00 15.5 86 11.37 13.2 13 20 1031.5 0 25.4 30.7 51.3 134.9 135.7 469.0
Roseworthy 08/05 11:00 14.8 78 9.88 11 22 32 1031.4 0 22.2 28.4 45.4 119.0 115.9 399.6
Snowtown 08/05 11:00 14.9 65 8.28 8.4 22 32 1032.2 0 18.8 25.8 38.8 101.6 94.4 324.3
---
Andamooka 08/05 09:00 13.4 55 6.39 4.5 19 1013.1 0 14.9 22.6 31.4 82.1 70.7 241.5
Cape Borda 08/05 11:00 14.2 83 10.14 11.4 28 43 1031.8 0 22.8 29.1 46.8 122.9 120.5 415.5
Cape Jaffa 08/05 11:00 16.2 74 10.2 11.6 30 35 1028.8 0 22.9 28.4 45.8 120.2 117.9 406.9
Cape Willoughby 08/05 11:00 14.5 86 10.7 12.2 28 37 1031 0 24.0 29.9 49.0 128.8 127.8 441.3
Ceduna 08/05 11:00 15.4 69 9.07 9.7 11 15 1034.4 0 20.5 27.0 41.8 109.6 104.3 359.2
Cleve 08/05 09:00 13 76 8.62 9 15 1032.8 0.3 19.6 26.9 41.2 107.8 101.3 348.3
Cleve Airport 08/05 11:00 15 64 8.21 8.3 20 26 1033 0 18.7 25.7 38.5 100.8 93.4 320.9
Coober Pedy Airport 08/05 11:00 15.8 42 5.65 2.9 24 33 1032.1 0 13.2 21.6 28.6 74.3 61.1 207.5
Coonawarra 08/05 11:00 14.3 85 10.44 11.8 24 33 1027.8 0 23.5 29.4 47.9 125.8 124.1 428.4
Cultana (Defence) 08/05 11:00 15.2 72 9.35 10.2 24 30 1013.1 0 21.1 26.7 42.1 110.6 106.5 367.0
Cummins Airport 08/05 11:00 15.5 69 9.12 9.8 22 28 1033.6 0 20.6 27.0 41.9 109.9 104.8 360.8
Edithburgh 08/05 11:00 17 76 11 12.7 19 28 1031.9 0 24.5 29.6 48.8 128.2 128.0 442.1
Elliston 08/05 09:00 15.9 78 10.56 12.2 4 1034.2 0 23.6 29.3 47.7 125.3 123.9 427.6
Ernabella/Pukatja 08/05 11:00 13.7 46 5.45 2.3 26 35 1013.1 0 12.9 21.1 27.9 72.8 59.3 201.2
Eudunda 08/05 09:00 12.2 77 8.31 8.4 56 1030.2 0 19.0 26.5 40.2 105.2 97.9 336.4
Gluepot 08/05 09:00 14.9 70 8.92 9.5 7 1013.1 0 20.2 26.1 40.5 106.4 101.2 348.4
Hawker 08/05 09:00 11.6 77 8 7.7 9 1031.6 0 18.4 26.3 39.3 102.8 94.6 324.7
Hindmarsh Island 08/05 11:00 16 80 10.9 12.6 35 43 1030.6 0 24.4 29.7 48.9 128.6 128.1 442.5
Karoonda 08/05 09:00 14 93 11.22 12.9 13 1013.1 0 25.2 30.3 50.7 133.5 134.3 464.0
Keith 08/05 09:00 14 96 11.58 13.3 9 1029.3 0.3 25.9 31.6 53.1 139.8 141.3 488.3
Keith West 08/05 11:00 15.3 82 10.71 12.2 20 35 1029 0 24.0 29.6 48.5 127.4 126.4 436.6
Kimba 08/05 09:00 11.4 85 8.73 9 0 1013.1 0 20.0 26.8 41.6 109.1 103.3 355.2
Kingscote 08/05 11:00 15.4 80 10.51 12 22 32 1031.7 0 23.6 29.3 47.7 125.2 123.7 427.1
Kyancutta 08/05 09:00 14.4 77 9.52 10.4 4 1034 0 21.5 28.0 44.2 115.9 111.8 385.1
Lameroo Aws 08/05 11:00 15.7 83 11.1 12.8 28 37 1029 0 24.8 30.1 49.9 131.2 131.3 453.5
Leigh Creek 08/05 11:00 15.3 46 6.01 3.8 4 9 1031.1 0 14.0 22.2 30.0 78.1 65.6 223.6
Loxton 08/05 11:00 16.9 66 9.49 10.5 26 39 1029.8 0 21.3 27.0 42.5 111.5 107.4 370.4
Maitland 08/05 09:00 13.9 99 11.87 13.7 2 1032.1 0 26.6 32.2 54.7 143.9 146.1 505.0
Marree Airport 08/05 11:00 16.7 42 5.97 3.7 11 20 1031.6 0 13.9 21.8 29.4 76.5 64.1 218.2
Minlaton Airport 08/05 11:00 15.7 72 9.63 10.7 19 26 1032.3 0 21.7 27.7 43.9 115.0 111.2 383.4
Minnipa Rs 08/05 11:00 15 59 7.57 7.1 19 26 1034 0 17.3 24.7 36.1 94.2 85.3 292.4
Moomba Airport 08/05 11:00 16.9 42 6.04 3.9 24 33 1029.5 0 14.0 21.8 29.5 76.7 64.6 220.1
Mount Barker 08/05 09:00 12.5 93 10.23 11.4 15 1013.1 0 23.2 29.0 47.3 124.5 122.6 423.1
Mount Gambier 08/05 11:00 13.3 88 10.17 11.4 35 48 1027.9 0 23.0 29.3 47.3 124.3 121.9 420.6
Murray Bridge 08/05 09:00 13.7 94 11.13 12.8 11 1013.1 0 25.0 30.2 50.5 133.0 133.5 461.3
Naracoorte 08/05 11:00 15 88 11.28 13 28 33 1027.8 0 25.2 30.6 51.1 134.3 134.9 466.2
Nullarbor 08/05 11:00 15.8 65 8.75 9.2 15 20 1035.1 0 19.8 26.4 40.4 105.7 99.6 342.8
Oodnadatta 08/05 11:00 17.1 38 5.53 2.7 26 35 1031.1 0 13.0 21.1 27.7 72.0 58.7 199.3
Padthaway 08/05 11:00 14.8 79 10.01 11.2 20 32 1013.1 0 22.6 27.9 45.0 118.4 116.0 400.1
Pallamana 08/05 11:00 15.1 90 11.61 13.5 20 30 1031.1 0 25.9 31.3 52.6 138.4 139.9 483.5
Parawa West 08/05 11:00 12.6 98 10.84 12.3 26 35 1030.9 0.4 24.4 30.8 50.9 133.7 133.1 459.4
Parndana 08/05 11:00 14.7 85 10.7 12.2 22 30 1013.1 0 24.0 29.1 48.0 126.3 125.7 434.1
Point Avoid 08/05 11:00 15.6 70 9.31 10.2 19 26 1033.3 0 21.0 27.3 42.6 111.8 107.2 369.1
Port Augusta 08/05 11:00 16.7 58 8.24 8.4 24 32 1032 0 18.7 25.2 37.8 98.9 91.7 315.2
Port Lincoln Airport 08/05 11:00 16.1 69 9.46 10.4 20 26 1033.4 0 21.3 27.4 43.0 112.7 108.5 373.8
Port Pirie Airport Aws 08/05 11:00 17.4 59 8.74 9.3 24 35 1032.2 0 19.7 25.8 39.4 103.2 97.2 334.7
Portable Sa Hotel (Cfs) 08/05 06:00 14.6 100 12.51 14.6 6 7 1013.1 0 27.9 32.4 56.1 147.8 152.1 526.2
Renmark Airport 08/05 11:00 16.3 67 9.29 10.2 24 37 1029.7 0 20.9 26.9 42.0 110.2 105.6 363.9
Robe Airport 08/05 11:00 15.5 76 10.05 11.3 24 30 1028.7 0 22.6 28.4 45.5 119.6 116.9 403.3
Roxby Downs 08/05 11:00 16.3 49 6.8 5.6 20 28 1032.2 0 15.6 23.1 32.6 84.9 74.3 254.1
Stenhouse Bay 08/05 11:00 15.5 80 10.57 12.1 20 28 1032.2 0 23.7 29.4 47.9 125.8 124.5 429.7
Strathalbyn 08/05 11:00 15.1 92 11.87 13.8 22 32 1030.9 0.8 26.5 31.8 53.8 141.5 143.7 496.7
Streaky Bay 08/05 09:00 13.4 87 10.11 11.3 4 1034.4 0 22.8 29.4 47.3 124.2 121.6 419.2
Tarcoola 08/05 11:00 16.9 48 6.9 5.8 19 28 1033.6 0 15.8 23.2 32.7 85.4 75.0 256.7
Victor Harbor 08/05 09:00 14.3 91 11.18 12.8 7 1013.1 0.4 25.1 30.1 50.3 132.5 133.2 460.2
Whyalla 08/05 11:00 14.8 87 11.02 12.7 11 17 1032.4 0.2 24.7 30.4 50.3 132.2 132.0 456.0
Woomera 08/05 11:00 15.1 55 7.1 6.1 17 28 1032.6 0 16.3 23.9 34.2 89.2 79.1 271.0
Wudinna Airport 08/05 11:00 15.7 57 7.63 7.2 17 22 1033.9 0 17.4 24.6 36.0 94.0 85.2 292.4
Yunta 08/05 11:00 13.9 70 8.39 8.5 17 28 1030.6 0 19.1 26.2 39.7 103.9 96.9 333.1

Last Refresh: 08-May-2026 11:02:57

Bureau of Meteorology